createdAt,value
2022-08-16T00:02:33.256Z,10.70
2022-08-16T00:05:00.766Z,11.50
2022-08-16T00:07:29.133Z,10.40
2022-08-16T00:09:57.366Z,9.93
2022-08-16T00:12:24.405Z,10.10
2022-08-16T00:14:56.909Z,10.67
2022-08-16T00:17:25.663Z,10.83
2022-08-16T00:19:55.014Z,11.10
2022-08-16T00:22:24.689Z,11.03
2022-08-16T00:24:55.556Z,11.40
2022-08-16T00:27:23.130Z,10.93
2022-08-16T00:30:00.723Z,11.00
2022-08-16T00:32:41.070Z,10.80
2022-08-16T00:35:15.050Z,11.00
2022-08-16T00:37:57.412Z,11.13
2022-08-16T00:40:50.925Z,11.43
2022-08-16T00:43:24.327Z,10.63
2022-08-16T00:46:33.930Z,10.47
2022-08-16T00:49:05.020Z,10.70
2022-08-16T00:51:32.017Z,9.87
2022-08-16T00:53:58.815Z,9.57
2022-08-16T00:56:56.003Z,8.70
2022-08-16T00:59:20.437Z,9.37
2022-08-16T01:01:51.800Z,8.90
2022-08-16T01:04:29.429Z,9.60
2022-08-16T01:07:01.697Z,9.17
2022-08-16T01:09:33.700Z,11.40
2022-08-16T01:12:03.280Z,11.23
2022-08-16T01:14:34.861Z,11.00
2022-08-16T01:17:02.240Z,11.40
2022-08-16T01:19:52.165Z,11.00
2022-08-16T01:22:52.432Z,10.50
2022-08-16T01:25:33.694Z,11.77
2022-08-16T01:28:04.913Z,11.33
2022-08-16T01:30:40.047Z,10.87
2022-08-16T01:33:19.297Z,10.53
2022-08-16T01:35:53.675Z,11.87
2022-08-16T01:38:25.736Z,11.97
2022-08-16T01:40:56.330Z,11.87
2022-08-16T01:43:25.036Z,11.67
2022-08-16T01:45:58.547Z,14.60
2022-08-16T01:48:29.606Z,12.23
2022-08-16T01:51:09.115Z,11.80
2022-08-16T01:53:43.489Z,12.07
2022-08-16T01:56:26.239Z,12.73
2022-08-16T01:58:57.263Z,12.60
2022-08-16T02:01:28.231Z,11.63
2022-08-16T02:03:58.193Z,11.67
2022-08-16T02:06:34.371Z,12.43
2022-08-16T02:09:05.238Z,11.20
2022-08-16T02:11:47.401Z,12.50
2022-08-16T02:14:18.118Z,11.20
2022-08-16T02:16:48.975Z,11.70
2022-08-16T02:19:18.297Z,11.83
2022-08-16T02:22:07.695Z,12.53
2022-08-16T02:24:40.814Z,11.43
2022-08-16T02:27:08.862Z,11.83
2022-08-16T02:29:35.567Z,11.43
2022-08-16T02:32:03.717Z,12.57
2022-08-16T02:34:50.284Z,12.10
2022-08-16T02:37:20.936Z,12.13
2022-08-16T02:39:53.914Z,12.97
2022-08-16T02:42:21.449Z,11.90
2022-08-16T02:44:48.913Z,11.97
2022-08-16T02:47:25.340Z,11.73
2022-08-16T02:50:52.273Z,11.90
2022-08-16T02:52:43.824Z,12.50
2022-08-16T02:55:11.760Z,11.90
2022-08-16T02:57:54.414Z,11.77
2022-08-16T03:00:34.744Z,12.53
2022-08-16T03:03:03.441Z,12.63
2022-08-16T03:05:31.738Z,12.57
2022-08-16T03:08:01.091Z,12.53
2022-08-16T03:10:33.689Z,12.60
2022-08-16T03:13:03.322Z,12.77
2022-08-16T03:15:31.537Z,12.97
2022-08-16T03:18:00.672Z,12.23
2022-08-16T03:20:32.502Z,12.50
2022-08-16T03:23:01.939Z,12.73
2022-08-16T03:25:40.980Z,12.33
2022-08-16T03:28:11.988Z,13.37
2022-08-16T03:30:39.907Z,13.03
2022-08-16T03:33:09.655Z,14.40
2022-08-16T03:35:44.755Z,14.00
2022-08-16T03:38:33.078Z,13.93
2022-08-16T03:41:17.174Z,14.33
2022-08-16T03:43:54.515Z,14.10
2022-08-16T03:46:47.536Z,13.57
2022-08-16T03:49:12.642Z,14.20
2022-08-16T03:51:43.004Z,14.63
2022-08-16T03:54:14.877Z,15.43
2022-08-16T03:56:57.863Z,14.90
2022-08-16T03:59:29.900Z,15.57
2022-08-16T04:02:01.279Z,13.77
2022-08-16T04:04:33.203Z,14.53
2022-08-16T04:07:06.975Z,14.30
2022-08-16T04:09:37.958Z,14.03
2022-08-16T04:12:11.063Z,14.87
2022-08-16T04:14:54.504Z,14.20
2022-08-16T04:17:21.644Z,15.37
2022-08-16T04:19:54.667Z,15.77
2022-08-16T04:22:27.410Z,14.83
2022-08-16T04:24:59.324Z,13.43
2022-08-16T04:27:31.922Z,15.77
2022-08-16T04:30:02.846Z,15.20
2022-08-16T04:32:31.187Z,16.57
2022-08-16T04:34:57.960Z,15.87
2022-08-16T04:37:26.306Z,15.93
2022-08-16T04:40:01.065Z,15.80
2022-08-16T04:42:35.947Z,16.53
2022-08-16T04:45:06.887Z,16.47
2022-08-16T04:47:36.084Z,16.10
2022-08-16T04:50:14.449Z,16.47
2022-08-16T04:52:57.785Z,17.73
2022-08-16T04:55:37.565Z,17.40
2022-08-16T04:58:44.782Z,18.73
2022-08-16T05:00:56.119Z,18.77
2022-08-16T05:03:23.970Z,19.07
2022-08-16T05:05:55.539Z,19.27
2022-08-16T05:08:30.800Z,19.43
2022-08-16T05:11:11.911Z,19.03
2022-08-16T05:13:43.064Z,18.13
2022-08-16T05:16:24.192Z,18.87
2022-08-16T05:19:00.495Z,19.17
2022-08-16T05:21:35.900Z,18.33
2022-08-16T05:24:07.369Z,19.23
2022-08-16T05:26:37.639Z,19.83
2022-08-16T05:29:14.716Z,18.83
2022-08-16T05:31:53.042Z,17.53
2022-08-16T05:34:21.467Z,19.27
2022-08-16T05:36:51.219Z,17.97
2022-08-16T05:39:20.690Z,18.80
2022-08-16T05:41:49.105Z,19.03
2022-08-16T05:44:23.340Z,19.53
2022-08-16T05:46:54.938Z,19.23
2022-08-16T05:49:23.280Z,18.73
2022-08-16T05:51:55.673Z,18.60
2022-08-16T05:54:25.216Z,19.17
2022-08-16T05:56:56.505Z,19.03
2022-08-16T05:59:24.885Z,19.57
2022-08-16T06:01:54.549Z,19.83
2022-08-16T06:04:35.551Z,19.50
2022-08-16T06:07:08.806Z,20.60
2022-08-16T06:09:43.283Z,19.27
2022-08-16T06:12:27.321Z,19.20
2022-08-16T06:15:09.971Z,17.53
2022-08-16T06:17:42.833Z,18.93
2022-08-16T06:20:24.141Z,18.07
2022-08-16T06:23:03.088Z,17.83
2022-08-16T06:25:39.180Z,18.27
2022-08-16T06:28:10.155Z,18.27
2022-08-16T06:30:45.287Z,17.80
2022-08-16T06:33:22.367Z,17.87
2022-08-16T06:35:55.281Z,16.57
2022-08-16T06:38:33.994Z,17.40
2022-08-16T06:41:13.927Z,16.20
2022-08-16T06:43:42.030Z,14.80
2022-08-16T06:46:24.541Z,14.93
2022-08-16T06:49:02.088Z,14.60
2022-08-16T06:51:46.396Z,15.97
2022-08-16T06:54:19.373Z,14.43
2022-08-16T06:56:46.010Z,13.60
2022-08-16T06:59:14.556Z,13.93
2022-08-16T07:01:54.850Z,13.93
2022-08-16T07:04:31.954Z,14.13
2022-08-16T07:07:01.011Z,13.97
2022-08-16T07:09:29.572Z,13.80
2022-08-16T07:12:03.557Z,12.97
2022-08-16T07:14:35.110Z,12.40
2022-08-16T07:17:08.249Z,12.20
2022-08-16T07:20:03.260Z,13.07
2022-08-16T07:22:36.645Z,12.97
2022-08-16T07:25:13.444Z,12.60
2022-08-16T07:27:41.276Z,12.10
2022-08-16T07:30:39.396Z,11.07
2022-08-16T07:33:03.341Z,10.20
2022-08-16T07:35:31.208Z,10.23
2022-08-16T07:37:58.975Z,10.07
2022-08-16T07:40:59.145Z,9.30
2022-08-16T07:43:24.371Z,9.37
2022-08-16T07:45:59.429Z,9.17
2022-08-16T07:48:28.936Z,9.13
2022-08-16T07:50:59.216Z,9.67
2022-08-16T07:53:30.951Z,9.67
2022-08-16T07:56:04.280Z,9.20
2022-08-16T07:58:40.570Z,8.27
2022-08-16T08:01:15.188Z,9.00
2022-08-16T08:03:48.930Z,10.20
2022-08-16T08:06:19.432Z,8.93
2022-08-16T08:08:50.339Z,8.40
2022-08-16T08:11:21.389Z,9.23
2022-08-16T08:13:50.670Z,9.50
2022-08-16T08:16:19.888Z,8.60
2022-08-16T08:18:50.341Z,7.60
2022-08-16T08:21:26.229Z,8.53
2022-08-16T08:23:56.403Z,7.60
2022-08-16T08:26:27.031Z,7.13
2022-08-16T08:29:00.993Z,7.13
2022-08-16T08:31:29.251Z,7.03
2022-08-16T08:33:58.479Z,7.57
2022-08-16T08:36:33.225Z,7.17
2022-08-16T08:39:12.993Z,6.70
2022-08-16T08:41:43.424Z,7.83
2022-08-16T08:44:28.815Z,6.30
2022-08-16T08:47:05.594Z,7.00
2022-08-16T08:49:46.278Z,7.93
2022-08-16T08:52:35.337Z,7.87
2022-08-16T08:55:11.479Z,8.43
2022-08-16T08:57:53.721Z,8.47
2022-08-16T09:00:50.199Z,7.30
2022-08-16T09:03:19.453Z,9.83
2022-08-16T09:05:51.813Z,8.50
2022-08-16T09:08:19.817Z,8.47
2022-08-16T09:11:01.959Z,7.13
2022-08-16T09:13:33.057Z,7.73
2022-08-16T09:16:00.677Z,7.93
2022-08-16T09:18:35.644Z,7.97
2022-08-16T09:21:07.005Z,7.83
2022-08-16T09:23:37.576Z,9.20
2022-08-16T09:26:45.907Z,7.67
2022-08-16T09:29:14.617Z,8.20
2022-08-16T09:31:42.792Z,8.77
2022-08-16T09:34:10.856Z,5.70
2022-08-16T09:36:45.019Z,5.43
2022-08-16T09:39:15.981Z,9.53
2022-08-16T09:41:43.855Z,8.63
2022-08-16T09:45:09.285Z,7.70
2022-08-16T09:47:10.512Z,8.97
2022-08-16T09:49:37.564Z,7.97
2022-08-16T09:52:09.924Z,7.13
2022-08-16T09:54:38.097Z,7.20
2022-08-16T09:57:04.998Z,7.33
2022-08-16T09:59:38.230Z,6.97
2022-08-16T10:02:25.846Z,6.90
2022-08-16T10:04:54.961Z,7.83
2022-08-16T10:07:23.068Z,6.97
2022-08-16T10:09:55.715Z,7.27
2022-08-16T10:12:46.557Z,7.27
2022-08-16T10:15:22.689Z,6.93
2022-08-16T10:18:01.454Z,6.97
2022-08-16T10:20:31.378Z,6.67
2022-08-16T10:23:03.612Z,6.80
2022-08-16T10:27:20.108Z,6.30
2022-08-16T10:28:28.519Z,6.30
2022-08-16T10:30:59.132Z,7.10
2022-08-16T10:33:29.694Z,5.70
2022-08-16T10:36:03.681Z,6.30
2022-08-16T10:38:36.816Z,5.83
2022-08-16T10:41:07.213Z,6.20
2022-08-16T10:43:35.574Z,5.57
2022-08-16T10:46:04.062Z,5.97
2022-08-16T10:48:52.964Z,6.10
2022-08-16T10:51:19.661Z,5.80
2022-08-16T10:53:46.412Z,5.93
2022-08-16T10:56:52.467Z,5.87
2022-08-16T11:12:57.053Z,6.63
2022-08-16T11:15:24.579Z,6.30
2022-08-16T11:20:49.302Z,6.77
2022-08-16T11:23:16.561Z,6.70
2022-08-16T11:31:17.890Z,6.83
2022-08-16T11:33:52.524Z,6.90
2022-08-16T11:36:25.014Z,6.37
2022-08-16T11:39:00.164Z,6.93
2022-08-16T11:41:30.106Z,7.20
2022-08-16T11:43:59.375Z,6.80
2022-08-16T11:46:44.213Z,6.73
2022-08-16T11:49:13.985Z,6.37
2022-08-16T11:51:44.041Z,6.20
2022-08-16T11:54:36.158Z,6.27
2022-08-16T11:57:09.364Z,6.77
2022-08-16T11:59:37.484Z,6.30
2022-08-16T12:02:32.497Z,7.13
2022-08-16T12:04:57.192Z,7.33
2022-08-16T12:07:24.145Z,9.27
2022-08-16T12:09:53.462Z,7.07
2022-08-16T12:12:23.504Z,7.77
2022-08-16T12:14:54.629Z,8.03
2022-08-16T12:17:31.990Z,7.47
2022-08-16T12:20:00.579Z,7.20
2022-08-16T12:22:27.773Z,7.50
2022-08-16T12:24:54.753Z,7.47
2022-08-16T12:27:24.092Z,6.93
2022-08-16T12:29:52.639Z,6.33
2022-08-16T12:32:35.595Z,6.57
2022-08-16T12:35:07.906Z,6.47
2022-08-16T12:37:35.385Z,6.87
2022-08-16T12:40:02.723Z,5.67
2022-08-16T12:42:35.470Z,5.20
2022-08-16T12:45:05.022Z,5.63
2022-08-16T12:47:50.228Z,5.73
2022-08-16T12:50:18.477Z,5.93
2022-08-16T12:52:53.178Z,5.03
2022-08-16T12:55:22.083Z,6.03
2022-08-16T12:57:58.318Z,6.90
2022-08-16T13:00:33.443Z,6.37
2022-08-16T13:03:02.402Z,6.20
2022-08-16T13:08:03.112Z,7.07
2022-08-16T13:10:37.693Z,6.93
2022-08-16T13:13:08.874Z,7.80
2022-08-16T13:15:55.499Z,7.43
2022-08-16T13:18:34.234Z,7.17
2022-08-16T13:21:05.235Z,7.27
2022-08-16T13:23:32.766Z,6.90
2022-08-16T13:25:59.702Z,7.77
2022-08-16T13:28:26.515Z,7.53
2022-08-16T13:30:55.301Z,7.90
2022-08-16T13:33:30.083Z,7.90
2022-08-16T13:36:00.027Z,7.80
2022-08-16T13:38:35.231Z,7.60
2022-08-16T13:41:08.321Z,7.77
2022-08-16T13:43:36.342Z,7.80
2022-08-16T13:46:04.472Z,6.87
2022-08-16T13:48:42.992Z,8.17
2022-08-16T13:51:18.560Z,6.77
2022-08-16T13:53:59.864Z,7.07
2022-08-16T13:56:36.008Z,6.23
2022-08-16T13:59:06.254Z,6.67
2022-08-16T14:01:43.987Z,5.67
2022-08-16T14:04:12.250Z,6.47
2022-08-16T14:06:50.055Z,6.00
2022-08-16T14:09:16.666Z,6.10
2022-08-16T14:11:46.803Z,5.97
2022-08-16T14:14:17.040Z,5.00
2022-08-16T14:16:45.059Z,6.23
2022-08-16T14:19:18.053Z,6.30
2022-08-16T14:21:55.992Z,5.93
2022-08-16T14:24:30.374Z,6.27
2022-08-16T14:26:57.698Z,6.20
2022-08-16T14:29:24.505Z,6.10
2022-08-16T14:31:59.234Z,6.73
2022-08-16T14:34:29.132Z,5.93
2022-08-16T14:36:57.664Z,6.20
2022-08-16T14:39:26.761Z,6.40
2022-08-16T14:41:55.980Z,6.00
2022-08-16T14:44:23.648Z,6.23
2022-08-16T14:46:50.247Z,6.17
2022-08-16T14:49:19.401Z,5.63
2022-08-16T14:51:46.366Z,5.87
2022-08-16T14:54:13.265Z,5.20
2022-08-16T14:56:46.950Z,5.13
2022-08-16T14:59:22.633Z,5.67
2022-08-16T15:01:59.747Z,5.63
2022-08-16T15:04:40.586Z,5.83
2022-08-16T15:07:16.622Z,5.00
2022-08-16T15:10:00.513Z,6.47
2022-08-16T15:12:31.271Z,6.13
2022-08-16T15:15:04.518Z,5.90
2022-08-16T15:17:40.770Z,6.17
2022-08-16T15:20:09.225Z,5.17
2022-08-16T15:22:43.539Z,5.40
2022-08-16T15:25:29.264Z,5.20
2022-08-16T15:27:57.301Z,5.80
2022-08-16T15:30:59.867Z,5.87
2022-08-16T15:33:16.195Z,5.67
2022-08-16T15:35:44.677Z,6.20
2022-08-16T15:38:55.769Z,6.00
2022-08-16T15:40:59.358Z,6.27
2022-08-16T15:43:33.975Z,6.10
2022-08-16T15:46:35.410Z,5.03
2022-08-16T15:49:13.524Z,5.30
2022-08-16T15:51:43.620Z,5.97
2022-08-16T15:54:29.433Z,5.83
2022-08-16T15:57:02.737Z,5.60
2022-08-16T15:59:48.905Z,5.50
2022-08-16T16:02:29.448Z,5.70
2022-08-16T16:05:01.726Z,3.67
2022-08-16T16:07:30.301Z,5.33
2022-08-16T16:09:59.222Z,5.87
2022-08-16T16:12:51.751Z,5.83
2022-08-16T16:15:20.104Z,5.03
2022-08-16T16:17:51.314Z,5.53
2022-08-16T16:20:24.398Z,5.53
2022-08-16T16:22:58.781Z,6.07
2022-08-16T16:25:25.730Z,5.70
2022-08-16T16:27:55.493Z,6.27
2022-08-16T16:30:33.094Z,5.63
2022-08-16T16:33:04.991Z,5.50
2022-08-16T16:35:34.773Z,5.80
2022-08-16T16:38:01.797Z,5.57
2022-08-16T16:40:46.130Z,5.63
2022-08-16T16:43:20.722Z,5.37
2022-08-16T16:45:52.809Z,5.30
2022-08-16T16:48:20.219Z,5.37
2022-08-16T16:50:47.813Z,5.07
2022-08-16T16:53:16.810Z,5.10
2022-08-16T16:55:47.662Z,5.23
2022-08-16T16:58:43.355Z,5.37
2022-08-16T17:01:14.519Z,5.50
2022-08-16T17:03:42.112Z,5.47
2022-08-16T17:06:10.563Z,6.20
2022-08-16T17:08:41.556Z,6.47
2022-08-16T17:11:10.168Z,6.30
2022-08-16T17:13:38.019Z,5.70
2022-08-16T17:16:05.823Z,6.87
2022-08-16T17:19:14.871Z,6.03
2022-08-16T17:21:23.987Z,5.53
2022-08-16T17:23:58.389Z,5.63
2022-08-16T17:26:29.917Z,5.70
2022-08-16T17:29:02.662Z,5.20
2022-08-16T17:31:43.633Z,5.90
2022-08-16T17:34:30.259Z,5.60
2022-08-16T17:37:00.406Z,5.60
2022-08-16T17:39:29.601Z,5.97
2022-08-16T17:41:58.774Z,6.83
2022-08-16T17:44:25.988Z,6.37
2022-08-16T17:46:53.236Z,7.80
2022-08-16T17:49:20.834Z,5.70
2022-08-16T17:51:48.153Z,6.10
2022-08-16T17:54:18.793Z,6.43
2022-08-16T17:57:01.270Z,5.63
2022-08-16T17:59:29.087Z,6.63
2022-08-16T18:01:56.592Z,7.40
2022-08-16T18:04:48.504Z,6.10
2022-08-16T18:07:11.132Z,6.60
2022-08-16T18:09:40.991Z,6.60
2022-08-16T18:12:51.296Z,5.90
2022-08-16T18:15:07.988Z,6.13
2022-08-16T18:17:34.680Z,6.80
2022-08-16T18:20:01.699Z,5.90
2022-08-16T18:22:31.541Z,5.73
2022-08-16T18:24:58.501Z,6.03
2022-08-16T18:27:27.293Z,7.10
2022-08-16T18:29:55.097Z,7.10
2022-08-16T18:32:24.540Z,7.60
2022-08-16T18:34:54.462Z,8.20
2022-08-16T18:37:23.195Z,8.17
2022-08-16T18:39:50.052Z,8.70
2022-08-16T18:42:16.739Z,8.23
2022-08-16T18:44:44.615Z,8.27
2022-08-16T18:47:11.660Z,7.93
2022-08-16T18:49:38.338Z,8.00
2022-08-16T18:52:05.602Z,7.97
2022-08-16T18:54:33.785Z,8.03
2022-08-16T18:57:20.420Z,7.00
2022-08-16T18:59:47.931Z,7.40
2022-08-16T19:02:56.930Z,7.90
2022-08-16T19:05:14.094Z,7.13
2022-08-16T19:07:41.183Z,7.47
2022-08-16T19:10:08.914Z,7.43
2022-08-16T19:12:37.740Z,7.40
2022-08-16T19:15:14.344Z,7.97
2022-08-16T19:17:42.952Z,7.70
2022-08-16T19:20:11.259Z,7.80
2022-08-16T19:25:48.552Z,8.10
2022-08-16T19:28:48.953Z,7.33
2022-08-16T19:31:15.309Z,7.87
2022-08-16T19:33:53.520Z,8.00
2022-08-16T19:36:31.437Z,7.83
2022-08-16T19:39:04.385Z,8.00
2022-08-16T19:41:37.357Z,8.03
2022-08-16T19:44:05.590Z,8.07
2022-08-16T19:46:32.523Z,8.37
2022-08-16T19:48:59.424Z,8.03
2022-08-16T19:51:26.089Z,7.93
2022-08-16T19:53:52.853Z,8.07
2022-08-16T19:56:23.087Z,8.07
2022-08-16T19:59:16.357Z,8.67
2022-08-16T20:01:42.027Z,8.43
2022-08-16T20:04:11.903Z,8.27
2022-08-16T20:06:39.358Z,8.50
2022-08-16T20:09:06.854Z,8.57
2022-08-16T20:11:35.181Z,8.30
2022-08-16T20:14:02.734Z,8.87
2022-08-16T20:16:35.424Z,8.23
2022-08-16T20:19:14.673Z,8.40
2022-08-16T20:22:52.994Z,7.73
2022-08-16T20:25:32.079Z,8.67
2022-08-16T20:28:03.154Z,8.43
2022-08-16T20:30:30.093Z,8.30
2022-08-16T20:33:02.178Z,8.70
2022-08-16T20:35:29.277Z,8.47
2022-08-16T20:37:56.657Z,8.77
2022-08-16T20:40:40.602Z,8.57
2022-08-16T20:44:11.371Z,8.47
2022-08-16T20:46:59.700Z,8.60
2022-08-16T21:01:02.371Z,9.83
2022-08-16T21:04:36.845Z,8.77
2022-08-16T21:07:29.681Z,8.80
2022-08-16T21:09:56.386Z,8.67
2022-08-16T21:12:23.960Z,9.23
2022-08-16T21:14:54.566Z,9.00
2022-08-16T21:17:22.523Z,8.10
2022-08-16T21:19:54.621Z,9.20
2022-08-16T21:22:22.398Z,9.47
2022-08-16T21:24:49.726Z,8.50
2022-08-16T21:27:21.032Z,8.47
2022-08-16T21:29:49.113Z,9.33
2022-08-16T21:32:34.983Z,9.07
2022-08-16T21:35:11.614Z,9.93
2022-08-16T21:37:38.968Z,9.70
2022-08-16T21:40:08.794Z,9.53
2022-08-16T21:42:37.073Z,9.10
2022-08-16T21:45:13.365Z,9.30
2022-08-16T21:47:40.043Z,9.27
2022-08-16T21:50:11.364Z,9.93
2022-08-16T21:52:41.092Z,10.30
2022-08-16T21:55:29.521Z,8.80
2022-08-16T21:57:56.252Z,9.70
2022-08-16T22:00:27.039Z,9.60
2022-08-16T22:02:56.819Z,8.83
2022-08-16T22:05:24.066Z,10.07
2022-08-16T22:07:51.744Z,9.10
2022-08-16T22:11:05.078Z,8.87
2022-08-16T22:13:14.105Z,9.20
2022-08-16T22:15:43.288Z,8.80
2022-08-16T22:18:09.958Z,9.37
2022-08-16T22:20:36.581Z,9.17
2022-08-16T22:23:13.253Z,8.30
2022-08-16T22:25:43.261Z,8.97
2022-08-16T22:28:09.989Z,8.83
2022-08-16T22:30:36.627Z,9.13
2022-08-16T22:33:11.861Z,9.50
2022-08-16T22:35:47.516Z,9.97
2022-08-16T22:38:56.546Z,9.40
2022-08-16T22:41:04.561Z,9.07
2022-08-16T22:43:32.588Z,9.43
2022-08-16T22:45:59.532Z,8.83
2022-08-16T22:48:26.276Z,9.80
2022-08-16T22:50:52.960Z,9.30
2022-08-16T22:53:19.645Z,9.30
2022-08-16T22:55:46.946Z,9.87
2022-08-16T22:58:13.873Z,9.90
2022-08-16T23:00:40.960Z,9.53
2022-08-16T23:03:14.058Z,9.93
2022-08-16T23:05:45.554Z,9.67
2022-08-16T23:08:32.241Z,9.50
2022-08-16T23:11:21.030Z,9.60
2022-08-16T23:13:53.198Z,9.90
2022-08-16T23:16:33.447Z,10.10
2022-08-16T23:19:10.459Z,9.50
2022-08-16T23:21:40.603Z,9.77
2022-08-16T23:24:08.508Z,8.80
2022-08-16T23:26:46.565Z,9.83
2022-08-16T23:29:23.374Z,9.23
2022-08-16T23:31:53.901Z,8.63
2022-08-16T23:34:21.812Z,9.00
2022-08-16T23:36:48.517Z,9.03
2022-08-16T23:39:15.155Z,9.63
2022-08-16T23:41:41.841Z,9.50
2022-08-16T23:44:57.794Z,9.13
2022-08-16T23:46:55.561Z,9.90
2022-08-16T23:49:56.290Z,10.10
2022-08-16T23:52:10.037Z,10.03
2022-08-16T23:54:36.697Z,10.97
2022-08-16T23:57:03.945Z,10.60
2022-08-16T23:59:32.542Z,10.17
